createdAt,value
2023-05-21T00:02:19.094Z,14.60
2023-05-21T00:04:48.891Z,14.50
2023-05-21T00:07:17.588Z,14.90
2023-05-21T00:09:46.354Z,16.30
2023-05-21T00:12:15.305Z,15.80
2023-05-21T00:14:43.998Z,14.40
2023-05-21T00:17:12.883Z,15.80
2023-05-21T00:19:42.134Z,16.60
2023-05-21T00:22:11.281Z,15.50
2023-05-21T00:24:40.064Z,14.40
2023-05-21T00:27:08.818Z,15.40
2023-05-21T00:29:37.756Z,15.30
2023-05-21T00:32:07.479Z,16.60
2023-05-21T00:34:37.670Z,15.60
2023-05-21T00:37:06.577Z,15.30
2023-05-21T00:39:35.347Z,14.70
2023-05-21T00:42:04.453Z,14.00
2023-05-21T00:44:36.515Z,14.70
2023-05-21T00:47:06.913Z,14.70
2023-05-21T00:49:35.790Z,14.80
2023-05-21T00:52:05.822Z,14.50
2023-05-21T00:54:34.700Z,14.30
2023-05-21T00:57:04.707Z,14.70
2023-05-21T00:59:34.354Z,16.20
2023-05-21T01:02:05.783Z,14.70
2023-05-21T01:04:34.817Z,14.80
2023-05-21T01:07:03.792Z,15.70
2023-05-21T01:09:32.895Z,15.50
2023-05-21T01:12:03.634Z,15.50
2023-05-21T01:14:33.252Z,15.50
2023-05-21T01:17:03.390Z,15.10
2023-05-21T01:19:33.033Z,15.50
2023-05-21T01:22:07.240Z,14.60
2023-05-21T01:24:36.999Z,15.40
2023-05-21T01:27:07.963Z,15.70
2023-05-21T01:29:36.816Z,14.50
2023-05-21T01:32:34.507Z,14.70
2023-05-21T01:35:10.788Z,14.80
2023-05-21T01:38:29.422Z,15.30
2023-05-21T01:41:11.010Z,15.30
2023-05-21T01:43:44.320Z,15.70
2023-05-21T01:46:20.149Z,14.60
2023-05-21T01:48:50.941Z,14.60
2023-05-21T01:51:20.096Z,15.20
2023-05-21T01:53:48.999Z,15.70
2023-05-21T01:56:17.781Z,16.00
2023-05-21T01:58:46.785Z,14.90
2023-05-21T02:01:15.589Z,15.20
2023-05-21T02:03:44.801Z,15.70
2023-05-21T02:06:14.367Z,16.70
2023-05-21T02:08:43.171Z,16.60
2023-05-21T02:11:12.056Z,16.00
2023-05-21T02:13:43.103Z,15.40
2023-05-21T02:16:16.144Z,16.70
2023-05-21T02:18:45.014Z,16.40
2023-05-21T02:21:13.990Z,17.00
2023-05-21T02:23:43.073Z,17.00
2023-05-21T02:26:11.757Z,16.50
2023-05-21T02:28:40.958Z,17.50
2023-05-21T02:31:10.141Z,16.90
2023-05-21T02:33:42.203Z,17.10
2023-05-21T02:36:13.563Z,17.00
2023-05-21T02:38:45.819Z,16.90
2023-05-21T02:41:14.597Z,18.00
2023-05-21T02:43:43.542Z,16.00
2023-05-21T02:46:12.856Z,17.00
2023-05-21T02:48:41.941Z,16.10
2023-05-21T02:51:11.121Z,17.20
2023-05-21T02:53:39.920Z,16.90
2023-05-21T02:56:08.797Z,17.30
2023-05-21T02:58:37.663Z,18.50
2023-05-21T03:01:07.034Z,17.60
2023-05-21T03:03:35.956Z,17.60
2023-05-21T03:06:05.387Z,17.40
2023-05-21T03:08:34.189Z,18.30
2023-05-21T03:11:03.278Z,16.70
2023-05-21T03:13:32.212Z,14.80
2023-05-21T03:16:01.976Z,17.00
2023-05-21T03:18:33.846Z,15.40
2023-05-21T03:21:02.935Z,16.70
2023-05-21T03:23:32.353Z,15.10
2023-05-21T03:26:02.789Z,15.50
2023-05-21T03:28:32.027Z,14.50
2023-05-21T03:31:01.178Z,16.20
2023-05-21T03:33:50.335Z,11.00
2023-05-21T03:36:23.119Z,13.70
2023-05-21T03:38:52.236Z,14.10
2023-05-21T03:41:21.615Z,14.10
2023-05-21T03:43:53.889Z,14.80
2023-05-21T03:46:24.277Z,13.70
2023-05-21T03:49:16.102Z,15.20
2023-05-21T03:51:45.295Z,14.50
2023-05-21T03:54:16.453Z,15.40
2023-05-21T03:56:45.707Z,14.40
2023-05-21T03:59:14.638Z,14.80
2023-05-21T04:01:44.082Z,13.60
2023-05-21T04:04:14.404Z,14.50
2023-05-21T04:06:43.199Z,13.30
2023-05-21T04:09:12.768Z,13.60
2023-05-21T04:11:41.710Z,15.10
2023-05-21T04:14:12.332Z,14.60
2023-05-21T04:16:44.404Z,12.80
2023-05-21T04:19:13.167Z,13.20
2023-05-21T04:21:42.386Z,13.00
2023-05-21T04:24:12.398Z,13.20
2023-05-21T04:26:50.695Z,12.70
2023-05-21T04:29:21.479Z,12.80
2023-05-21T04:31:51.525Z,13.10
2023-05-21T04:34:20.592Z,13.60
2023-05-21T04:36:50.272Z,12.70
2023-05-21T04:39:19.074Z,12.30
2023-05-21T04:41:48.780Z,12.90
2023-05-21T04:44:17.572Z,11.40
2023-05-21T04:46:47.194Z,12.20
2023-05-21T04:49:16.093Z,11.80
2023-05-21T04:51:45.783Z,11.60
2023-05-21T04:54:14.469Z,11.00
2023-05-21T04:56:44.178Z,11.30
2023-05-21T04:59:12.997Z,11.50
2023-05-21T05:01:44.210Z,9.80
2023-05-21T05:04:12.996Z,10.10
2023-05-21T05:06:41.915Z,9.80
2023-05-21T05:09:11.355Z,10.50
2023-05-21T05:11:40.200Z,10.60
2023-05-21T05:14:09.105Z,10.60
2023-05-21T05:16:38.638Z,10.20
2023-05-21T05:19:07.448Z,10.70
2023-05-21T05:21:36.415Z,9.70
2023-05-21T05:24:07.307Z,10.20
2023-05-21T05:26:36.837Z,10.00
2023-05-21T05:29:05.562Z,10.20
2023-05-21T05:31:34.786Z,9.30
2023-05-21T05:34:03.971Z,9.00
2023-05-21T05:36:32.787Z,9.70
2023-05-21T05:39:01.799Z,9.90
2023-05-21T05:41:30.775Z,8.90
2023-05-21T05:43:59.676Z,9.10
2023-05-21T05:46:30.427Z,9.70
2023-05-21T05:48:59.715Z,10.00
2023-05-21T05:51:28.827Z,9.30
2023-05-21T05:53:57.716Z,9.40
2023-05-21T05:56:27.407Z,9.40
2023-05-21T05:58:56.392Z,9.00
2023-05-21T06:01:26.520Z,9.50
2023-05-21T06:03:55.221Z,9.20
2023-05-21T06:06:24.807Z,8.70
2023-05-21T06:08:53.877Z,8.60
2023-05-21T06:11:23.207Z,8.40
2023-05-21T06:13:51.999Z,9.30
2023-05-21T06:16:20.730Z,9.40
2023-05-21T06:18:49.470Z,8.90
2023-05-21T06:21:18.371Z,8.60
2023-05-21T06:23:47.363Z,8.60
2023-05-21T06:26:19.420Z,8.20
2023-05-21T06:28:48.723Z,8.90
2023-05-21T06:31:17.928Z,8.60
2023-05-21T06:33:46.907Z,8.80
2023-05-21T06:36:20.496Z,8.10
2023-05-21T06:38:49.618Z,7.80
2023-05-21T06:41:18.407Z,8.40
2023-05-21T06:43:53.545Z,8.10
2023-05-21T06:46:41.033Z,8.40
2023-05-21T06:49:14.445Z,8.50
2023-05-21T06:51:44.394Z,8.70
2023-05-21T06:54:14.506Z,8.50
2023-05-21T06:56:43.623Z,7.60
2023-05-21T06:59:12.664Z,7.80
2023-05-21T07:01:42.979Z,7.60
2023-05-21T07:04:12.224Z,7.80
2023-05-21T07:06:41.829Z,7.60
2023-05-21T07:09:11.346Z,8.70
2023-05-21T07:11:40.668Z,8.70
2023-05-21T07:14:10.579Z,7.40
2023-05-21T07:16:39.974Z,7.90
2023-05-21T07:19:09.743Z,7.30
2023-05-21T07:21:39.080Z,6.80
2023-05-21T07:24:09.007Z,7.70
2023-05-21T07:26:40.955Z,6.90
2023-05-21T07:29:10.454Z,7.20
2023-05-21T07:31:39.805Z,7.00
2023-05-21T07:34:08.952Z,7.60
2023-05-21T07:36:37.851Z,6.60
2023-05-21T07:39:07.049Z,7.40
2023-05-21T07:41:36.552Z,7.10
2023-05-21T07:44:08.498Z,7.30
2023-05-21T07:46:41.631Z,7.80
2023-05-21T07:49:16.971Z,7.70
2023-05-21T07:51:47.584Z,7.20
2023-05-21T07:54:17.295Z,7.80
2023-05-21T07:56:47.111Z,8.20
2023-05-21T07:59:27.774Z,7.10
2023-05-21T08:01:57.466Z,7.40
2023-05-21T08:04:26.793Z,6.40
2023-05-21T08:06:55.690Z,7.10
2023-05-21T08:09:24.575Z,6.90
2023-05-21T08:11:53.462Z,6.40
2023-05-21T08:14:22.773Z,6.80
2023-05-21T08:16:52.223Z,7.00
2023-05-21T08:19:21.503Z,6.80
2023-05-21T08:21:52.761Z,7.50
2023-05-21T08:24:24.678Z,6.60
2023-05-21T08:26:53.471Z,6.60
2023-05-21T08:29:22.160Z,6.10
2023-05-21T08:31:51.273Z,6.80
2023-05-21T08:34:20.247Z,6.80
2023-05-21T08:36:56.306Z,6.40
2023-05-21T08:39:45.065Z,6.80
2023-05-21T08:42:39.866Z,6.60
2023-05-21T08:45:13.564Z,6.90
2023-05-21T08:47:44.585Z,6.50
2023-05-21T08:50:21.205Z,8.10
2023-05-21T08:52:52.130Z,8.30
2023-05-21T08:55:21.846Z,6.70
2023-05-21T08:57:51.239Z,6.60
2023-05-21T09:00:24.634Z,6.00
2023-05-21T09:02:57.189Z,6.20
2023-05-21T09:05:27.744Z,5.60
2023-05-21T09:08:07.020Z,6.10
2023-05-21T09:10:52.712Z,6.40
2023-05-21T09:13:26.809Z,5.80
2023-05-21T09:15:56.133Z,5.20
2023-05-21T09:18:27.938Z,5.70
2023-05-21T09:21:31.746Z,5.90
2023-05-21T09:24:04.525Z,5.30
2023-05-21T09:26:33.212Z,5.70
2023-05-21T09:29:04.668Z,5.80
2023-05-21T09:31:33.623Z,5.50
2023-05-21T09:34:03.176Z,4.70
2023-05-21T09:36:38.794Z,5.40
2023-05-21T09:39:07.712Z,4.90
2023-05-21T09:41:38.362Z,5.10
2023-05-21T09:44:07.138Z,4.60
2023-05-21T09:46:43.212Z,5.10
2023-05-21T09:49:32.336Z,4.90
2023-05-21T09:52:02.374Z,5.50
2023-05-21T09:54:35.779Z,5.90
2023-05-21T09:57:04.967Z,6.00
2023-05-21T09:59:41.678Z,6.30
2023-05-21T10:02:24.818Z,6.40
2023-05-21T10:04:57.453Z,6.10
2023-05-21T10:07:27.506Z,5.80
2023-05-21T10:09:58.232Z,5.70
2023-05-21T10:12:30.408Z,5.90
2023-05-21T10:15:04.603Z,6.20
2023-05-21T10:17:34.072Z,5.90
2023-05-21T10:20:03.738Z,5.40
2023-05-21T10:22:33.126Z,6.10
2023-05-21T10:25:04.351Z,5.40
2023-05-21T10:27:34.846Z,5.10
2023-05-21T10:30:07.301Z,5.20
2023-05-21T10:32:36.673Z,5.00
2023-05-21T10:35:08.684Z,4.50
2023-05-21T10:37:38.957Z,4.90
2023-05-21T10:40:08.782Z,4.60
2023-05-21T10:43:08.473Z,4.90
2023-05-21T10:46:26.728Z,4.70
2023-05-21T10:49:34.737Z,4.10
2023-05-21T10:52:51.038Z,4.70
2023-05-21T10:55:44.914Z,4.80
2023-05-21T10:58:37.872Z,4.30
2023-05-21T11:01:07.978Z,5.20
2023-05-21T11:03:38.218Z,4.60
2023-05-21T11:06:07.212Z,5.10
2023-05-21T11:08:37.747Z,5.00
2023-05-21T11:11:06.435Z,4.80
2023-05-21T11:13:49.554Z,4.30
2023-05-21T11:16:22.280Z,4.80
2023-05-21T11:18:51.072Z,4.40
2023-05-21T11:21:25.881Z,4.40
2023-05-21T11:23:59.463Z,4.50
2023-05-21T11:26:50.470Z,4.40
2023-05-21T11:29:20.354Z,4.70
2023-05-21T11:32:03.371Z,4.40
2023-05-21T11:34:46.636Z,4.70
2023-05-21T11:37:18.431Z,4.60
2023-05-21T11:39:48.625Z,5.00
2023-05-21T11:42:39.723Z,5.30
2023-05-21T11:45:09.499Z,4.40
2023-05-21T11:47:40.605Z,4.60
2023-05-21T11:50:14.799Z,4.70
2023-05-21T11:52:44.492Z,4.10
2023-05-21T11:55:16.002Z,4.50
2023-05-21T11:57:45.644Z,4.00
2023-05-21T12:00:16.582Z,5.00
2023-05-21T12:02:52.937Z,4.30
2023-05-21T12:05:22.812Z,4.00
2023-05-21T12:07:52.180Z,4.20
2023-05-21T12:10:24.841Z,4.10
2023-05-21T12:12:56.918Z,4.30
2023-05-21T12:15:28.072Z,4.00
2023-05-21T12:17:58.150Z,4.20
2023-05-21T12:20:28.601Z,4.20
2023-05-21T12:22:59.245Z,5.80
2023-05-21T12:25:30.091Z,4.40
2023-05-21T12:28:01.769Z,4.20
2023-05-21T12:30:30.532Z,3.90
2023-05-21T12:33:00.117Z,4.40
2023-05-21T12:35:30.717Z,4.20
2023-05-21T12:38:03.120Z,4.10
2023-05-21T12:40:39.592Z,4.10
2023-05-21T12:43:09.145Z,4.00
2023-05-21T12:45:39.910Z,3.70
2023-05-21T12:48:09.213Z,4.20
2023-05-21T12:50:41.198Z,3.60
2023-05-21T12:53:11.915Z,3.70
2023-05-21T12:55:40.945Z,3.50
2023-05-21T12:58:14.554Z,3.70
2023-05-21T13:00:44.346Z,4.60
2023-05-21T13:03:14.614Z,3.90
2023-05-21T13:05:43.415Z,3.60
2023-05-21T13:08:14.504Z,3.60
2023-05-21T13:10:43.331Z,4.10
2023-05-21T13:13:12.020Z,3.80
2023-05-21T13:15:40.743Z,3.80
2023-05-21T13:18:09.871Z,3.80
2023-05-21T13:20:39.092Z,3.60
2023-05-21T13:23:10.556Z,3.90
2023-05-21T13:25:40.373Z,3.60
2023-05-21T13:28:10.796Z,3.60
2023-05-21T13:30:39.837Z,4.30
2023-05-21T13:33:08.762Z,3.80
2023-05-21T13:35:38.293Z,3.90
2023-05-21T13:38:06.983Z,3.70
2023-05-21T13:40:38.755Z,4.00
2023-05-21T13:43:07.843Z,3.50
2023-05-21T13:45:36.624Z,3.90
2023-05-21T13:48:06.713Z,4.10
2023-05-21T13:50:35.581Z,4.10
2023-05-21T13:53:04.533Z,3.90
2023-05-21T13:55:33.320Z,3.90
2023-05-21T13:58:02.003Z,3.40
2023-05-21T14:00:31.159Z,3.80
2023-05-21T14:02:59.982Z,3.70
2023-05-21T14:05:28.889Z,3.60
2023-05-21T14:07:57.672Z,3.90
2023-05-21T14:10:26.768Z,3.60
2023-05-21T14:13:01.651Z,4.10
2023-05-21T14:15:37.336Z,3.10
2023-05-21T14:18:10.504Z,3.70
2023-05-21T14:20:39.485Z,4.10
2023-05-21T14:23:09.777Z,3.30
2023-05-21T14:25:38.761Z,3.90
2023-05-21T14:28:07.748Z,3.80
2023-05-21T14:30:36.643Z,3.50
2023-05-21T14:33:05.588Z,3.60
2023-05-21T14:35:34.746Z,3.40
2023-05-21T14:38:03.633Z,3.90
2023-05-21T14:40:32.517Z,3.60
2023-05-21T14:43:01.713Z,3.40
2023-05-21T14:45:30.511Z,3.70
2023-05-21T14:47:59.231Z,3.50
2023-05-21T14:50:28.386Z,3.80
2023-05-21T14:52:57.126Z,4.10
2023-05-21T14:55:27.196Z,3.90
2023-05-21T14:57:56.291Z,3.50
2023-05-21T15:00:25.185Z,3.00
2023-05-21T15:02:56.521Z,3.30
2023-05-21T15:05:28.257Z,3.60
2023-05-21T15:07:58.307Z,3.50
2023-05-21T15:10:28.591Z,3.20
2023-05-21T15:12:57.222Z,3.60
2023-05-21T15:15:26.105Z,3.40
2023-05-21T15:17:54.944Z,3.20
2023-05-21T15:20:24.237Z,3.50
2023-05-21T15:22:59.119Z,3.20
2023-05-21T15:25:37.612Z,3.10
2023-05-21T15:28:06.649Z,3.20
2023-05-21T15:30:35.429Z,3.90
2023-05-21T15:33:04.221Z,3.50
2023-05-21T15:35:33.072Z,3.40
2023-05-21T15:38:02.239Z,3.40
2023-05-21T15:40:32.704Z,3.30
2023-05-21T15:43:01.499Z,3.20
2023-05-21T15:45:30.420Z,3.50
2023-05-21T15:47:59.227Z,3.30
2023-05-21T15:50:28.127Z,3.10
2023-05-21T15:52:56.936Z,3.40
2023-05-21T15:55:25.688Z,4.80
2023-05-21T15:57:54.788Z,4.00
2023-05-21T16:00:23.468Z,3.50
2023-05-21T16:02:52.155Z,3.60
2023-05-21T16:05:21.349Z,3.60
2023-05-21T16:07:50.240Z,4.20
2023-05-21T16:10:19.264Z,3.30
2023-05-21T16:12:47.921Z,3.50
2023-05-21T16:15:17.138Z,3.40
2023-05-21T16:17:46.916Z,3.40
2023-05-21T16:20:16.546Z,3.10
2023-05-21T16:22:45.231Z,3.40
2023-05-21T16:25:14.030Z,3.80
2023-05-21T16:27:42.810Z,3.20
2023-05-21T16:30:14.237Z,3.00
2023-05-21T16:32:43.303Z,3.50
2023-05-21T16:35:12.158Z,3.20
2023-05-21T16:37:40.935Z,3.20
2023-05-21T16:40:10.989Z,3.50
2023-05-21T16:42:40.371Z,3.10
2023-05-21T16:45:11.048Z,3.20
2023-05-21T16:47:39.919Z,3.30
2023-05-21T16:50:09.794Z,3.40
2023-05-21T16:52:38.392Z,4.00
2023-05-21T16:55:07.892Z,2.90
2023-05-21T16:57:36.839Z,3.10
2023-05-21T17:00:07.999Z,3.60
2023-05-21T17:02:36.709Z,3.30
2023-05-21T17:05:06.422Z,3.30
2023-05-21T17:07:35.008Z,3.40
2023-05-21T17:10:03.796Z,3.30
2023-05-21T17:12:33.100Z,3.80
2023-05-21T17:15:02.509Z,3.10
2023-05-21T17:17:31.268Z,3.80
2023-05-21T17:20:01.929Z,2.80
2023-05-21T17:22:30.742Z,3.10
2023-05-21T17:24:59.403Z,3.20
2023-05-21T17:27:28.500Z,3.60
2023-05-21T17:29:58.031Z,3.10
2023-05-21T17:32:26.925Z,3.50
2023-05-21T17:34:55.497Z,7.20
2023-05-21T17:37:24.096Z,5.00
2023-05-21T17:39:52.955Z,3.80
2023-05-21T17:42:21.549Z,3.70
2023-05-21T17:44:50.332Z,4.20
2023-05-21T17:47:19.121Z,4.20
2023-05-21T17:49:47.909Z,3.80
2023-05-21T17:52:16.694Z,4.30
2023-05-21T17:54:45.503Z,3.70
2023-05-21T17:57:16.430Z,3.40
2023-05-21T17:59:45.935Z,3.50
2023-05-21T18:02:14.719Z,3.60
2023-05-21T18:04:43.409Z,3.30
2023-05-21T18:07:12.193Z,3.90
2023-05-21T18:09:43.146Z,3.50
2023-05-21T18:12:12.026Z,4.10
2023-05-21T18:14:40.816Z,3.80
2023-05-21T18:17:09.648Z,3.90
2023-05-21T18:19:38.390Z,3.90
2023-05-21T18:22:07.082Z,3.90
2023-05-21T18:24:37.811Z,4.00
2023-05-21T18:27:06.986Z,3.90
2023-05-21T18:29:37.077Z,4.30
2023-05-21T18:32:06.629Z,4.30
2023-05-21T18:34:35.324Z,3.90
2023-05-21T18:37:04.116Z,3.90
2023-05-21T18:39:32.699Z,4.10
2023-05-21T18:42:12.209Z,3.70
2023-05-21T18:44:46.069Z,3.70
2023-05-21T18:47:14.946Z,4.10
2023-05-21T18:49:43.896Z,3.50
2023-05-21T18:52:12.721Z,3.60
2023-05-21T18:54:41.627Z,3.70
2023-05-21T18:57:10.508Z,3.20
2023-05-21T18:59:39.502Z,3.60
2023-05-21T19:02:08.622Z,4.00
2023-05-21T19:04:37.709Z,3.70
2023-05-21T19:07:06.612Z,4.30
2023-05-21T19:09:35.588Z,4.10
2023-05-21T19:12:05.132Z,4.40
2023-05-21T19:14:33.773Z,4.20
2023-05-21T19:17:02.663Z,4.50
2023-05-21T19:19:31.989Z,4.40
2023-05-21T19:22:00.963Z,5.10
2023-05-21T19:24:29.758Z,4.30
2023-05-21T19:27:00.373Z,6.10
2023-05-21T19:29:29.399Z,5.80
2023-05-21T19:31:59.445Z,4.50
2023-05-21T19:34:28.677Z,5.60
2023-05-21T19:36:57.388Z,5.40
2023-05-21T19:39:26.067Z,5.70
2023-05-21T19:41:54.856Z,5.10
2023-05-21T19:44:23.545Z,5.20
2023-05-21T19:46:52.442Z,6.00
2023-05-21T19:49:21.136Z,5.40
2023-05-21T19:51:52.272Z,5.50
2023-05-21T19:54:22.737Z,5.60
2023-05-21T19:56:51.910Z,4.70
2023-05-21T19:59:20.592Z,4.80
2023-05-21T20:01:49.665Z,4.70
2023-05-21T20:04:18.779Z,3.80
2023-05-21T20:06:47.562Z,3.50
2023-05-21T20:09:18.371Z,4.00
2023-05-21T20:11:48.631Z,3.60
2023-05-21T20:14:17.519Z,3.80
2023-05-21T20:16:47.517Z,2.90
2023-05-21T20:19:16.441Z,3.10
2023-05-21T20:21:45.484Z,2.90
2023-05-21T20:24:14.620Z,3.20
2023-05-21T20:26:45.351Z,3.30
2023-05-21T20:29:14.035Z,3.30
2023-05-21T20:31:42.826Z,3.10
2023-05-21T20:34:12.636Z,2.90
2023-05-21T20:36:41.642Z,3.20
2023-05-21T20:39:10.422Z,2.70
2023-05-21T20:41:39.922Z,2.90
2023-05-21T20:44:08.513Z,2.80
2023-05-21T20:46:41.359Z,3.00
2023-05-21T20:49:10.117Z,2.80
2023-05-21T20:51:38.879Z,2.90
2023-05-21T20:54:07.977Z,2.60
2023-05-21T20:56:42.053Z,3.10
2023-05-21T20:59:12.381Z,2.60
2023-05-21T21:01:41.605Z,2.60
2023-05-21T21:04:10.811Z,2.80
2023-05-21T21:06:40.632Z,2.70
2023-05-21T21:09:09.205Z,2.70
2023-05-21T21:11:38.222Z,2.70
2023-05-21T21:14:07.495Z,3.10
2023-05-21T21:16:36.468Z,3.20
2023-05-21T21:19:05.432Z,3.30
2023-05-21T21:21:34.381Z,3.10
2023-05-21T21:24:03.062Z,2.60
2023-05-21T21:26:31.768Z,2.80
2023-05-21T21:29:00.443Z,2.40
2023-05-21T21:31:31.029Z,2.80
2023-05-21T21:33:59.804Z,2.80
2023-05-21T21:36:31.675Z,2.70
2023-05-21T21:39:00.319Z,2.50
2023-05-21T21:41:29.616Z,2.60
2023-05-21T21:43:58.603Z,2.90
2023-05-21T21:46:27.475Z,2.50
2023-05-21T21:48:56.286Z,3.20
2023-05-21T21:51:25.175Z,3.10
2023-05-21T21:53:53.758Z,2.70
2023-05-21T21:56:22.552Z,2.90
2023-05-21T21:58:51.139Z,3.20
2023-05-21T22:01:20.541Z,3.10
2023-05-21T22:03:49.639Z,2.50
2023-05-21T22:06:18.326Z,2.40
2023-05-21T22:08:47.151Z,2.30
2023-05-21T22:11:15.798Z,3.30
2023-05-21T22:13:44.708Z,2.80
2023-05-21T22:16:13.701Z,2.50
2023-05-21T22:18:42.473Z,2.30
2023-05-21T22:21:14.491Z,2.80
2023-05-21T22:23:43.226Z,2.70
2023-05-21T22:26:11.915Z,2.80
2023-05-21T22:28:40.701Z,2.10
2023-05-21T22:31:09.441Z,2.70
2023-05-21T22:33:38.388Z,2.60
2023-05-21T22:36:07.799Z,2.40
2023-05-21T22:38:36.482Z,2.70
2023-05-21T22:41:05.280Z,2.30
2023-05-21T22:43:36.287Z,2.10
2023-05-21T22:46:05.032Z,2.50
2023-05-21T22:48:34.721Z,2.60
2023-05-21T22:51:04.779Z,2.50
2023-05-21T22:53:33.870Z,2.60
2023-05-21T22:56:02.577Z,2.40
2023-05-21T22:58:31.399Z,2.10
2023-05-21T23:01:00.187Z,2.40
2023-05-21T23:03:28.976Z,2.40
2023-05-21T23:05:57.678Z,2.70
2023-05-21T23:08:27.038Z,2.20
2023-05-21T23:10:55.754Z,2.40
2023-05-21T23:13:24.397Z,2.50
2023-05-21T23:15:54.069Z,2.60
2023-05-21T23:18:22.838Z,2.20
2023-05-21T23:20:52.386Z,2.30
2023-05-21T23:23:21.238Z,2.40
2023-05-21T23:25:52.282Z,2.40
2023-05-21T23:28:20.874Z,3.00
2023-05-21T23:30:49.651Z,2.60
2023-05-21T23:33:18.543Z,2.50
2023-05-21T23:35:47.261Z,2.20
2023-05-21T23:38:16.026Z,2.80
2023-05-21T23:40:44.823Z,2.20
2023-05-21T23:43:13.800Z,2.60
2023-05-21T23:45:43.039Z,2.90
2023-05-21T23:48:12.358Z,2.40
2023-05-21T23:50:41.355Z,2.30
2023-05-21T23:53:10.085Z,2.40
2023-05-21T23:55:38.773Z,2.70
2023-05-21T23:58:07.457Z,2.80
